createdAt,value
2022-09-12T00:03:41.993Z,12.60
2022-09-12T00:08:44.631Z,12.40
2022-09-12T00:13:47.689Z,12.40
2022-09-12T00:18:50.531Z,12.40
2022-09-12T00:23:53.243Z,12.40
2022-09-12T00:28:55.638Z,12.40
2022-09-12T00:34:02.940Z,12.40
2022-09-12T00:39:06.349Z,12.20
2022-09-12T00:44:24.236Z,12.00
2022-09-12T00:49:32.877Z,12.00
2022-09-12T00:55:01.913Z,11.90
2022-09-12T01:00:16.673Z,11.90
2022-09-12T01:05:20.430Z,12.00
2022-09-12T01:10:23.971Z,12.10
2022-09-12T01:15:26.737Z,11.90
2022-09-12T01:21:01.102Z,11.80
2022-09-12T01:26:21.300Z,11.90
2022-09-12T01:31:54.299Z,11.80
2022-09-12T01:37:17.082Z,11.90
2022-09-12T01:42:40.415Z,11.80
2022-09-12T01:48:21.263Z,11.60
2022-09-12T01:53:28.493Z,11.60
2022-09-12T01:58:45.395Z,11.50
2022-09-12T02:04:09.318Z,11.50
2022-09-12T02:09:19.833Z,11.50
2022-09-12T02:14:26.660Z,11.50
2022-09-12T02:19:36.487Z,11.60
2022-09-12T02:24:43.124Z,11.50
2022-09-12T02:29:46.105Z,11.50
2022-09-12T02:35:03.310Z,11.40
2022-09-12T02:40:08.957Z,11.30
2022-09-12T02:45:12.691Z,11.30
2022-09-12T02:50:15.231Z,11.30
2022-09-12T02:55:17.858Z,11.30
2022-09-12T03:00:20.616Z,11.30
2022-09-12T03:05:59.972Z,11.50
2022-09-12T03:11:18.534Z,11.30
2022-09-12T03:16:51.965Z,11.20
2022-09-12T03:22:23.108Z,11.20
2022-09-12T03:27:52.520Z,11.20
2022-09-12T03:32:55.605Z,11.20
2022-09-12T03:37:57.987Z,11.30
2022-09-12T03:43:00.411Z,11.30
2022-09-12T03:48:03.930Z,11.40
2022-09-12T03:53:06.289Z,11.60
2022-09-12T03:58:08.620Z,11.60
2022-09-12T04:03:11.039Z,11.80
2022-09-12T04:08:14.383Z,11.80
2022-09-12T04:13:16.751Z,11.80
2022-09-12T04:18:19.109Z,12.00
2022-09-12T04:23:21.473Z,12.20
2022-09-12T04:28:24.566Z,12.10
2022-09-12T04:33:27.016Z,12.30
2022-09-12T04:38:29.354Z,12.30
2022-09-12T04:43:31.688Z,12.20
2022-09-12T04:48:34.056Z,12.30
2022-09-12T04:53:37.161Z,12.30
2022-09-12T04:58:39.847Z,12.50
2022-09-12T05:03:43.605Z,12.50
2022-09-12T05:08:46.561Z,12.60
2022-09-12T05:13:49.373Z,12.80
2022-09-12T05:18:51.894Z,12.70
2022-09-12T05:23:56.192Z,12.90
2022-09-12T05:28:58.703Z,12.90
2022-09-12T05:34:01.641Z,13.00
2022-09-12T05:39:04.692Z,13.10
2022-09-12T05:44:12.089Z,13.20
2022-09-12T05:49:14.743Z,13.30
2022-09-12T05:54:20.280Z,13.40
2022-09-12T05:59:24.077Z,13.50
2022-09-12T06:04:28.218Z,13.60
2022-09-12T06:09:30.620Z,13.60
2022-09-12T06:14:33.329Z,13.70
2022-09-12T06:19:35.759Z,13.70
2022-09-12T06:24:38.406Z,13.70
2022-09-12T06:29:40.813Z,13.70
2022-09-12T06:34:43.182Z,13.70
2022-09-12T06:39:46.943Z,13.80
2022-09-12T06:44:50.520Z,13.70
2022-09-12T06:49:52.863Z,13.70
2022-09-12T06:54:55.227Z,13.80
2022-09-12T06:59:57.580Z,14.00
2022-09-12T07:05:00.153Z,14.20
2022-09-12T07:10:02.625Z,14.40
2022-09-12T07:15:05.784Z,14.60
2022-09-12T07:20:08.626Z,14.80
2022-09-12T07:25:11.046Z,15.10
2022-09-12T07:30:13.416Z,15.20
2022-09-12T07:35:15.981Z,15.40
2022-09-12T07:40:18.519Z,15.40
2022-09-12T07:45:20.994Z,15.50
2022-09-12T07:50:23.898Z,15.80
2022-09-12T07:55:27.097Z,16.00
2022-09-12T08:00:35.878Z,16.20
2022-09-12T08:05:38.659Z,16.20
2022-09-12T08:10:41.169Z,16.20
2022-09-12T08:15:43.737Z,16.20
2022-09-12T08:20:46.134Z,16.30
2022-09-12T08:25:48.499Z,16.30
2022-09-12T08:30:51.049Z,16.30
2022-09-12T08:35:53.474Z,16.40
2022-09-12T08:41:05.225Z,16.70
2022-09-12T08:46:21.960Z,16.80
2022-09-12T08:51:24.944Z,17.10
2022-09-12T08:56:31.933Z,17.10
2022-09-12T09:01:45.596Z,17.20
2022-09-12T09:07:09.437Z,17.10
2022-09-12T09:12:29.743Z,17.20
2022-09-12T09:17:38.826Z,17.40
2022-09-12T09:22:46.964Z,17.30
2022-09-12T09:27:58.722Z,17.10
2022-09-12T09:33:03.681Z,16.80
2022-09-12T09:38:44.986Z,16.80
2022-09-12T09:43:47.604Z,17.10
2022-09-12T09:48:51.266Z,17.40
2022-09-12T09:54:11.413Z,17.80
2022-09-12T10:27:16.636Z,19.90
2022-09-12T10:32:31.075Z,20.00
2022-09-12T10:37:41.248Z,19.60
2022-09-12T10:42:55.354Z,19.70
2022-09-12T10:48:07.522Z,19.90
2022-09-12T10:53:23.343Z,20.70
2022-09-12T10:58:56.899Z,21.60
2022-09-12T11:04:23.835Z,21.30
2022-09-12T11:09:43.048Z,21.30
2022-09-12T11:21:09.435Z,20.70
2022-09-12T11:26:20.459Z,21.70
2022-09-12T11:31:23.094Z,21.50
2022-09-12T11:36:46.619Z,21.80
2022-09-12T11:41:57.659Z,21.90
2022-09-12T11:47:04.817Z,21.00
2022-09-12T11:52:13.416Z,20.80
2022-09-12T11:57:41.546Z,20.60
2022-09-12T12:03:00.492Z,20.20
2022-09-12T12:08:05.975Z,20.10
2022-09-12T12:13:19.397Z,20.10
2022-09-12T12:18:26.942Z,19.90
2022-09-12T12:23:34.940Z,19.80
2022-09-12T12:28:44.273Z,19.80
2022-09-12T12:33:46.659Z,19.90
2022-09-12T12:38:49.006Z,20.00
2022-09-12T12:43:53.339Z,20.10
2022-09-12T12:49:26.947Z,20.30
2022-09-12T12:54:51.374Z,20.50
2022-09-12T13:00:30.986Z,20.50
2022-09-12T13:05:40.922Z,20.60
2022-09-12T13:10:58.024Z,20.80
2022-09-12T13:16:00.523Z,21.20
2022-09-12T13:21:18.004Z,22.00
2022-09-12T13:26:27.908Z,23.00
2022-09-12T13:31:30.699Z,24.30
2022-09-12T13:36:38.964Z,24.40
2022-09-12T13:41:44.139Z,25.30
2022-09-12T13:46:47.530Z,26.70
2022-09-12T13:52:01.947Z,26.80
2022-09-12T13:57:04.879Z,25.10
2022-09-12T14:02:43.253Z,24.80
2022-09-12T14:07:56.331Z,24.70
2022-09-12T14:13:01.976Z,25.10
2022-09-12T14:18:06.858Z,27.30
2022-09-12T14:23:30.820Z,27.60
2022-09-12T14:28:37.683Z,29.30
2022-09-12T14:33:48.734Z,29.50
2022-09-12T14:38:55.196Z,30.10
2022-09-12T14:44:05.281Z,30.70
2022-09-12T14:49:09.505Z,31.10
2022-09-12T14:54:37.364Z,31.50
2022-09-12T14:59:40.928Z,31.70
2022-09-12T15:04:47.680Z,31.70
2022-09-12T15:09:50.398Z,31.50
2022-09-12T15:14:52.980Z,31.50
2022-09-12T15:19:55.562Z,31.30
2022-09-12T15:24:58.057Z,29.80
2022-09-12T15:30:00.587Z,29.00
2022-09-12T15:35:03.767Z,29.00
2022-09-12T15:40:06.922Z,27.80
2022-09-12T15:45:30.626Z,27.90
2022-09-12T15:50:33.291Z,27.10
2022-09-12T15:55:35.837Z,25.60
2022-09-12T16:00:38.562Z,24.80
2022-09-12T16:05:41.510Z,25.40
2022-09-12T16:10:45.094Z,25.50
2022-09-12T16:15:47.814Z,25.50
2022-09-12T16:20:56.654Z,25.30
2022-09-12T16:26:01.659Z,24.40
2022-09-12T16:31:05.881Z,24.00
2022-09-12T16:36:14.320Z,23.90
2022-09-12T16:41:19.270Z,23.20
2022-09-12T16:46:28.862Z,22.70
2022-09-12T16:51:35.971Z,22.00
2022-09-12T16:56:38.654Z,21.70
2022-09-12T17:01:41.545Z,21.40
2022-09-12T17:06:44.396Z,21.10
2022-09-12T17:11:47.881Z,20.90
2022-09-12T17:16:52.047Z,20.70
2022-09-12T17:21:55.462Z,20.50
2022-09-12T17:26:59.387Z,20.10
2022-09-12T17:32:02.243Z,20.00
2022-09-12T17:37:04.831Z,19.80
2022-09-12T17:42:08.709Z,19.70
2022-09-12T20:31:13.997Z,14.60
2022-09-12T21:54:23.202Z,13.50
2022-09-12T22:25:58.685Z,13.10
2022-09-12T22:32:09.463Z,13.10
2022-09-12T23:03:11.906Z,12.40
2022-09-12T23:09:14.722Z,12.60
2022-09-12T23:21:43.882Z,12.20
2022-09-12T23:46:46.389Z,12.30
